Weather observations for the past three days for
Salisbury, Salisbury-Ocean City Wicomico County Regional Airport
Metric (Imperial)
Date Time (edt) Wind (kph) Vis. (km) Weather Sky Cond. Temperature (ºC) Relative Humidity Wind Chill (°C) Heat Index (°C) Pressure Precipitation (cm)
Air Dwpt 6 hour altimeter (cm) sea level (mb) 1 hr 3 hr 6 hr
Max. Min.
05 00:54 S 19 16.09 Fair CLR 17.8 11.1 65% 76 1013.2
04 23:54 S 17 16.09 Fair CLR 16.1 11.1 72% 75.97 1013.0
04 22:54 S 15 16.09 Fair CLR 16.1 11.7 75% 75.97 1012.9
04 21:54 S 13 16.09 Fair CLR 16.1 11.1 72% 75.97 1013.0
04 20:54 S 13 16.09 Fair CLR 16.7 10.6 67% 75.95 1012.7
04 19:54 S 13 16.09 Fair CLR 18.3 8.9 23.9 18.3 54% 75.92 1012.4
04 18:54 S 19 16.09 Fair CLR 20.6 8.9 47% 75.9 1012.2
04 17:54 SW 26 G 41 16.09 Fair CLR 23.3 2.8 26% 75.92 1012.3
04 16:54 S 22 16.09 Fair CLR 23.9 3.9 27% 25 75.92 1012.4
04 15:54 SW 20 G 39 16.09 Fair CLR 23.3 3.3 27% 75.95 1012.8
04 14:54 W 26 G 37 16.09 Fair CLR 23.3 2.2 25% 76 1013.3
04 13:54 W 20 G 31 16.09 Fair CLR 23.3 1.7 23.3 12.8 24% 76.02 1013.8
04 12:54 SW 22 G 37 16.09 Fair CLR 22.2 2.2 27% 76.07 1014.4
04 11:54 SW 15 G 30 16.09 Fair CLR 21.1 4.4 34% 76.1 1014.7
04 10:54 SW 17 G 33 16.09 Fair CLR 20 5.6 39% 76.15 1015.3
04 09:54 S 20 16.09 Fair CLR 18.3 6.1 45% 76.15 1015.5
04 08:54 S 20 16.09 Fair CLR 15.6 7.8 60% 76.2 1016.2
04 07:54 S 11 16.09 Partly Cloudy SCT100 12.8 8.3 12.8 7.2 74% 76.25 1016.6
04 06:54 S 7 16.09 Overcast OVC110 10 7.2 83% 9 76.28 1017.0
04 05:54 S 11 16.09 Mostly Cloudy BKN120 9.4 6.7 83% 8 76.25 1016.7
04 04:54 S 9 16.09 Mostly Cloudy BKN120 9.4 6.1 80% 8 76.28 1017.1
04 03:54 S 13 16.09 Fair CLR 8.9 5.6 80% 7 76.3 1017.4
04 02:54 S 13 16.09 Fair CLR 7.8 4.4 79% 6 76.3 1017.4
04 01:54 S 15 16.09 Fair CLR 7.2 2.2 11.7 5 71% 5 76.3 1017.3
04 00:54 S 9 16.09 Fair CLR 6.1 1.1 71% 4 76.3 1017.3
03 23:54 S 11 16.09 Fair CLR 6.7 0 63% 5 76.28 1017.0
03 22:54 Calm 16.09 Fair CLR 7.2 1.1 66% 76.25 1016.7
03 21:54 Calm 16.09 Fair CLR 6.7 1.1 68% 76.25 1016.7
03 20:54 Calm 16.09 Fair CLR 8.3 1.1 61% 76.2 1016.2
03 19:54 S 6 16.09 Fair CLR 12.2 -0.6 15.6 12.2 42% 76.15 1015.4
03 18:54 W 13 G 28 16.09 Fair CLR 14.4 -2.8 31% 76.15 1015.2
03 17:54 W 17 G 37 16.09 Fair CLR 15 -3.3 28% 76.15 1015.3
03 16:54 NW 26 G 43 16.09 Fair CLR 15.6 -3.9 26% 76.12 1014.9
03 15:54 NW 30 G 48 16.09 Fair CLR 15 -4.4 26% 76.15 1015.4
03 14:54 W 28 G 44 16.09 Fair CLR 14.4 -4.4 27% 76.17 1015.6
03 13:54 NW 24 G 54 16.09 Fair CLR 14.4 -4.4 15 8.3 27% 76.2 1015.9
03 12:54 W 24 G 48 16.09 Fair CLR 13.3 -3.9 30% 76.2 1016.1
03 11:54 NW 26 G 50 16.09 A Few Clouds FEW060 12.8 -3.9 31% 76.23 1016.3
03 10:54 W 30 G 46 16.09 Partly Cloudy SCT055 11.7 -4.4 32% 76.2 1016.2
03 09:54 W 20 G 43 16.09 A Few Clouds FEW055 11.1 -2.8 38% 76.2 1016.1
03 08:54 NW 22 G 43 16.09 Fair CLR 10 -1.1 46% 7 76.17 1015.8
03 07:54 NW 24 G 39 16.09 Fair CLR 8.3 0 9.4 6.7 56% 5 76.15 1015.4
03 06:54 NW 19 16.09 Fair CLR 7.2 0.6 63% 4 76.1 1014.8
03 05:54 W 11 G 28 16.09 Fair CLR 7.2 0.6 63% 5 76.02 1013.8
03 04:54 NW 11 16.09 Fair CLR 7.2 0.6 63% 5 76 1013.2
03 03:54 W 9 16.09 Partly Cloudy SCT100 7.8 0.6 61% 6 75.95 1012.8
03 02:54 NW 13 16.09 Fair CLR 7.8 0.6 61% 6 75.92 1012.3
03 01:54 NW 17 16.09 Fair CLR 9.4 0 12.8 9.4 52% 7 75.9 1012.1
03 00:54 NW 11 16.09 Fair CLR 10 0.6 52% 9 75.9 1012.1
02 23:54 NW 11 16.09 Fair CLR 11.1 0 47% 75.92 1012.3
02 22:54 NW 13 16.09 Fair CLR 11.7 0.6 47% 75.92 1012.2
02 21:54 NW 9 16.09 Fair CLR 11.1 1.1 50% 75.92 1012.2
02 20:54 NW 6 16.09 Fair CLR 11.7 0.6 47% 75.87 1011.8
02 19:54 N 7 16.09 Fair CLR 12.2 0 15.6 12.2 43% 75.84 1011.5
02 18:54 NW 9 16.09 Fair CLR 13.9 0.6 41% 75.84 1011.2
02 17:54 N 7 16.09 Mostly Cloudy BKN085 13.9 1.1 42% 75.84 1011.2
02 16:54 N 11 16.09 Mostly Cloudy BKN080 14.4 1.1 41% 75.82 1011.1
02 15:54 NW 19 16.09 Mostly Cloudy BKN075 14.4 0.6 39% 75.84 1011.3
02 14:54 NW 13 G 30 16.09 A Few Clouds FEW110 14.4 1.7 42% 75.9 1012.0
02 13:54 NW 15 16.09 Overcast OVC070 14.4 2.8 14.4 10.6 46% 75.95 1012.8
02 12:54 NW 15 16.09 Mostly Cloudy BKN070 14.4 3.3 48% 75.97 1012.9
02 11:54 NW 15 16.09 Mostly Cloudy BKN070 13.3 3.3 51% 76.02 1013.6
02 10:54 N 15 16.09 Partly Cloudy SCT060 12.8 3.9 55% 76 1013.5
02 09:54 N 13 16.09 Fair CLR 12.8 3.9 55% 76 1013.2
02 08:54 N 15 16.09 Fair CLR 11.7 6.7 72% 76 1013.3
02 07:54 N 9 16.09 Fair CLR 10.6 7.2 10.6 7.2 80% 76 1013.4
02 06:54 NW 7 16.09 Fair CLR 8.3 7.2 93% 7 76 1013.3
02 05:54 Calm 16.09 Fair CLR 7.8 6.7 93% 75.95 1012.7
02 04:54 Calm 16.09 Fair CLR 8.3 7.2 93% 75.92 1012.5
02 03:54 S 6 16.09 Partly Cloudy SCT110 8.3 6.7 90% 75.92 1012.4
02 02:54 Calm 16.09 Fair CLR 7.2 5.6 90% 75.92 1012.4
02 01:54 Calm 16.09 Fair CLR 8.3 6.1 12.8 7.2 86% 75.97 1013.1
Date Time (edt) Wind (kph) Vis. (km) Weather Sky Cond. Air Dwpt Max. Min. Relative Humidity Wind Chill (°C) Heat Index (°C) altimeter (cm) sea level (mb) 1 hr 3 hr 6 hr
6 hour
Temperature (ºC) Pressure Precipitation (cm)